Time;durP1;ratioP1;P1;durP2;ratioP2;P2;SDS_P1;SDS_P2;PMS_P1;PMS_P2;Temp;Humidity;BMP_temperature;BMP_pressure;BME280_temperature;BME280_humidity;BME280_pressure;Samples;Min_cycle;Max_cycle;Signal;HPM_P1;HPM_P2
2021/12/05 00:23:32;;;;;;;;;;;;;;;17.91;50.75;99705.94;5093560;28;19912;-62
2021/12/05 00:26:00;;;;;;;;;;;;;;;17.87;51.07;99707.19;5092244;28;19916;-62
2021/12/05 00:28:45;;;;;;;;;;;;;;;17.87;51.04;99709.00;5093204;28;20386;-62
2021/12/05 00:31:42;;;;;;;;;;;;;;;17.84;51.00;99714.56;5093130;28;19956;-62
2021/12/05 00:34:24;;;;;;;;;;;;;;;17.82;51.09;99711.25;5094027;28;20359;-62
2021/12/05 00:47:35;;;;;;;;;;;;;;;17.71;50.70;99707.84;5099368;28;20018;-62
2021/12/05 00:53:12;;;;;;;;;;;;;;;17.67;50.89;99705.66;5101154;28;19919;-62
2021/12/05 00:55:59;;;;;;;;;;;;;;;17.65;50.85;99712.91;5096074;28;19969;-62
2021/12/05 00:59:06;;;;;;;;;;;;;;;17.63;50.88;99705.13;5096528;28;19950;-61
2021/12/05 01:09:32;;;;;;;;;;;;;;;17.55;50.99;99712.97;5096613;28;19918;-60
2021/12/05 01:14:58;;;;;;;;;;;;;;;17.51;50.98;99725.56;5095802;28;19943;-61
2021/12/05 01:17:08;;;;;;;;;;;;;;;17.50;51.08;99717.81;5095683;28;19985;-60
2021/12/05 01:19:34;;;;;;;;;;;;;;;17.48;50.72;99709.25;5095738;28;19920;-61
2021/12/05 01:22:02;;;;;;;;;;;;;;;17.46;50.97;99719.94;5094819;28;19916;-60
2021/12/05 01:27:17;;;;;;;;;;;;;;;17.42;51.07;99713.31;5098042;28;19969;-60
2021/12/05 01:37:25;;;;;;;;;;;;;;;17.36;50.70;99708.63;5095006;28;20347;-62
2021/12/05 01:58:07;;;;;;;;;;;;;;;17.28;52.18;99721.72;5098661;28;19963;-61
2021/12/05 02:09:17;;;;;;;;;;;;;;;17.36;51.66;99709.44;5097530;28;19919;-62
2021/12/05 02:12:17;;;;;;;;;;;;;;;17.37;51.61;99700.59;5093861;28;19922;-62
2021/12/05 02:33:58;;;;;;;;;;;;;;;17.40;51.23;99694.19;5094354;28;20363;-62
2021/12/05 02:36:54;;;;;;;;;;;;;;;17.38;51.22;99678.53;5094272;28;19995;-61
2021/12/05 02:39:38;;;;;;;;;;;;;;;17.38;51.00;99675.88;5093670;28;19942;-61
2021/12/05 02:42:27;;;;;;;;;;;;;;;17.38;51.13;99680.34;5093906;28;20077;-61
2021/12/05 02:44:52;;;;;;;;;;;;;;;17.38;50.81;99683.78;5093826;28;19912;-61
2021/12/05 02:47:20;;;;;;;;;;;;;;;17.37;51.27;99682.16;5093494;28;19956;-61
2021/12/05 02:49:47;;;;;;;;;;;;;;;17.38;51.91;99683.78;5093938;28;19923;-62
2021/12/05 02:52:20;;;;;;;;;;;;;;;17.39;51.73;99682.00;5093917;28;20438;-62
2021/12/05 02:54:49;;;;;;;;;;;;;;;17.39;51.66;99685.47;5093668;28;19912;-61
2021/12/05 02:57:14;;;;;;;;;;;;;;;17.41;51.64;99685.31;5093001;28;19916;-62
2021/12/05 02:59:45;;;;;;;;;;;;;;;17.42;51.30;99692.25;5092681;28;19959;-60
2021/12/05 03:02:13;;;;;;;;;;;;;;;17.43;51.63;99698.34;5093933;28;20007;-60
2021/12/05 03:04:42;;;;;;;;;;;;;;;17.42;51.71;99689.63;5093912;28;19922;-62
2021/12/05 03:07:09;;;;;;;;;;;;;;;17.42;51.60;99694.88;5092984;28;19927;-61
2021/12/05 03:09:35;;;;;;;;;;;;;;;17.43;51.25;99698.34;5093749;28;19912;-61
2021/12/05 03:12:01;;;;;;;;;;;;;;;17.43;51.49;99696.50;5093175;28;20413;-60
2021/12/05 03:14:26;;;;;;;;;;;;;;;17.43;51.34;99687.78;5092764;28;20427;-61
2021/12/05 03:16:52;;;;;;;;;;;;;;;17.42;50.92;99684.34;5093225;28;20010;-61
2021/12/05 03:19:17;;;;;;;;;;;;;;;17.43;51.22;99685.16;5093336;28;19916;-61
2021/12/05 03:21:43;;;;;;;;;;;;;;;17.41;51.08;99680.03;5092451;28;19916;-61
2021/12/05 03:24:09;;;;;;;;;;;;;;;17.42;51.20;99673.81;5093396;28;20259;-62
2021/12/05 03:26:35;;;;;;;;;;;;;;;17.40;51.08;99676.59;5093233;28;20423;-61
2021/12/05 03:29:02;;;;;;;;;;;;;;;17.39;51.02;99677.56;5092269;28;19912;-61
2021/12/05 03:31:28;;;;;;;;;;;;;;;17.39;51.48;99669.66;5093575;28;19916;-61
2021/12/05 03:33:54;;;;;;;;;;;;;;;17.39;51.76;99669.66;5093165;28;19919;-60
2021/12/05 03:36:19;;;;;;;;;;;;;;;17.41;51.79;99674.78;5092525;28;19912;-61
2021/12/05 03:38:45;;;;;;;;;;;;;;;17.42;51.79;99673.81;5092974;28;19923;-61
2021/12/05 03:41:10;;;;;;;;;;;;;;;17.44;51.85;99671.84;5093100;28;19912;-61
2021/12/05 03:43:36;;;;;;;;;;;;;;;17.44;51.76;99668.41;5092757;28;19923;-61
2021/12/05 03:46:02;;;;;;;;;;;;;;;17.44;51.41;99665.75;5092765;28;19920;-60
2021/12/05 03:48:29;;;;;;;;;;;;;;;17.45;51.73;99681.41;5093182;28;19919;-61
2021/12/05 03:50:55;;;;;;;;;;;;;;;17.46;51.61;99679.59;5092087;28;19994;-61
2021/12/05 03:53:21;;;;;;;;;;;;;;;17.45;51.68;99668.25;5092903;28;19994;-61
2021/12/05 03:55:47;;;;;;;;;;;;;;;17.46;51.32;99676.97;5091808;28;19912;-61
2021/12/05 03:58:13;;;;;;;;;;;;;;;17.46;51.26;99675.16;5093080;28;19911;-61
2021/12/05 04:00:40;;;;;;;;;;;;;;;17.46;51.44;99675.16;5092967;28;19942;-61
2021/12/05 04:03:07;;;;;;;;;;;;;;;17.46;51.87;99677.78;5092142;28;19912;-60
2021/12/05 04:05:34;;;;;;;;;;;;;;;17.48;52.03;99680.28;5092676;28;19912;-61
2021/12/05 04:08:01;;;;;;;;;;;;;;;17.47;51.89;99679.44;5092353;28;19916;-61
2021/12/05 04:10:28;;;;;;;;;;;;;;;17.49;51.91;99679.31;5092024;28;19908;-62
2021/12/05 04:12:56;;;;;;;;;;;;;;;17.49;51.89;99681.94;5092532;28;20010;-61
2021/12/05 04:15:21;;;;;;;;;;;;;;;17.51;51.65;99679.97;5092721;28;20386;-62
2021/12/05 04:17:47;;;;;;;;;;;;;;;17.51;51.76;99677.34;5091442;28;19967;-62
2021/12/05 04:20:13;;;;;;;;;;;;;;;17.51;51.75;99682.59;5092654;28;19916;-61
2021/12/05 04:22:39;;;;;;;;;;;;;;;17.51;51.49;99680.78;5092476;28;20414;-61
2021/12/05 04:25:09;;;;;;;;;;;;;;;17.51;51.21;99674.72;5091871;28;19912;-61
2021/12/05 04:27:34;;;;;;;;;;;;;;;17.51;51.64;99682.59;5092835;28;19916;-62
2021/12/05 04:29:59;;;;;;;;;;;;;;;17.51;51.16;99683.44;5092218;28;20235;-61
2021/12/05 04:32:25;;;;;;;;;;;;;;;17.51;51.51;99682.59;5091807;28;19919;-61
2021/12/05 04:34:50;;;;;;;;;;;;;;;17.49;51.25;99685.41;5092178;28;19938;-62
2021/12/05 04:37:15;;;;;;;;;;;;;;;17.50;51.60;99688.84;5092411;28;19919;-61
2021/12/05 04:39:40;;;;;;;;;;;;;;;17.51;51.72;99682.59;5091506;28;19923;-60
2021/12/05 04:42:06;;;;;;;;;;;;;;;17.50;51.99;99681.78;5092329;28;20274;-61
2021/12/05 04:44:32;;;;;;;;;;;;;;;17.52;51.84;99689.56;5092590;28;20344;-61
2021/12/05 04:47:00;;;;;;;;;;;;;;;17.52;51.75;99687.72;5091546;28;19916;-62
2021/12/05 04:49:25;;;;;;;;;;;;;;;17.53;51.85;99689.41;5092386;28;19912;-61
2021/12/05 04:51:50;;;;;;;;;;;;;;;17.53;51.75;99680.66;5091392;28;19923;-62
2021/12/05 04:54:17;;;;;;;;;;;;;;;17.53;51.66;99683.28;5092335;28;19912;-62
2021/12/05 04:56:44;;;;;;;;;;;;;;;17.52;51.82;99681.66;5092281;28;19923;-62
2021/12/05 04:59:13;;;;;;;;;;;;;;;17.53;51.66;99681.50;5091600;28;20423;-61
2021/12/05 05:01:40;;;;;;;;;;;;;;;17.52;51.76;99679.00;5092284;28;19919;-61
2021/12/05 05:04:12;;;;;;;;;;;;;;;17.52;51.56;99684.28;5092203;28;19963;-61
2021/12/05 05:06:38;;;;;;;;;;;;;;;17.51;51.70;99677.34;5091502;28;20011;-61
2021/12/05 05:09:03;;;;;;;;;;;;;;;17.51;51.67;99680.78;5091990;28;19912;-61
2021/12/05 05:11:28;;;;;;;;;;;;;;;17.52;51.94;99681.66;5092372;28;19934;-62
2021/12/05 05:13:54;;;;;;;;;;;;;;;17.54;51.92;99687.59;5091015;28;19916;-62
2021/12/05 05:16:22;;;;;;;;;;;;;;;17.54;52.10;99682.31;5092146;28;20385;-62
2021/12/05 05:21:28;;;;;;;;;;;;;;;17.55;51.90;99691.88;5094456;28;19916;-62
2021/12/05 05:47:54;;;;;;;;;;;;;;;17.55;52.29;99711.16;5097108;28;20036;-61
2021/12/05 05:50:20;;;;;;;;;;;;;;;17.55;51.87;99718.22;5094111;28;19995;-61
2021/12/05 05:52:46;;;;;;;;;;;;;;;17.56;51.75;99717.22;5094410;28;20041;-61
2021/12/05 05:55:12;;;;;;;;;;;;;;;17.55;52.00;99723.50;5094664;28;19961;-62
2021/12/05 06:00:13;;;;;;;;;;;;;;;17.55;51.79;99726.94;5094891;28;19950;-61
2021/12/05 06:05:22;;;;;;;;;;;;;;;17.56;52.52;99728.63;5100285;28;20108;-61
2021/12/05 06:07:47;;;;;;;;;;;;;;;17.58;52.73;99739.00;5094408;28;19966;-60
2021/12/05 06:10:19;;;;;;;;;;;;;;;17.62;52.45;99736.91;5093856;28;19951;-63
2021/12/05 06:12:44;;;;;;;;;;;;;;;17.61;52.67;99727.31;5094355;28;19923;-60
2021/12/05 06:15:12;;;;;;;;;;;;;;;17.63;52.27;99726.22;5094722;28;20295;-60
2021/12/05 06:17:38;;;;;;;;;;;;;;;17.65;52.43;99736.59;5093616;28;19920;-62
2021/12/05 06:20:11;;;;;;;;;;;;;;;17.66;52.05;99733.00;5094519;28;19916;-61
2021/12/05 06:22:36;;;;;;;;;;;;;;;17.67;52.07;99738.09;5094487;28;19923;-61
2021/12/05 06:25:04;;;;;;;;;;;;;;;17.69;51.88;99735.31;5093264;28;19912;-61
2021/12/05 06:27:29;;;;;;;;;;;;;;;17.71;51.94;99743.94;5094183;28;19920;-60
2021/12/05 06:30:06;;;;;;;;;;;;;;;17.73;51.78;99734.06;5093795;28;20009;-61
2021/12/05 06:36:47;;;;;;;;;;;;;;;17.75;51.69;99742.63;5092746;28;19912;-61
2021/12/05 06:38:22;;;;;;;;;;;;;;;17.76;51.75;99750.38;5093261;28;19922;-61
2021/12/05 06:46:21;;;;;;;;;;;;;;;17.81;51.22;99757.03;5095403;28;19919;-62
2021/12/05 06:48:47;;;;;;;;;;;;;;;17.82;51.26;99764.78;5093495;28;19950;-61
2021/12/05 06:51:13;;;;;;;;;;;;;;;17.84;51.06;99768.09;5093899;28;19963;-61
2021/12/05 06:53:39;;;;;;;;;;;;;;;17.85;51.02;99763.66;5093304;28;19912;-61
2021/12/05 06:56:05;;;;;;;;;;;;;;;17.85;51.03;99767.13;5093820;28;19923;-61
2021/12/05 06:58:32;;;;;;;;;;;;;;;17.88;51.11;99771.28;5092976;28;20286;-62
2021/12/05 07:00:57;;;;;;;;;;;;;;;17.88;51.16;99769.50;5093590;28;19912;-61
2021/12/05 07:03:23;;;;;;;;;;;;;;;17.89;51.16;99778.22;5093619;28;19935;-62
2021/12/05 07:08:32;;;;;;;;;;;;;;;17.90;51.01;99799.16;5097217;28;19926;-62
2021/12/05 07:11:12;;;;;;;;;;;;;;;17.92;50.83;99801.66;5093381;28;19915;-62
2021/12/05 07:16:40;;;;;;;;;;;;;;;17.92;51.04;99810.38;5098225;28;20016;-61
2021/12/05 07:42:50;;;;;;;;;;;;;;;17.98;50.59;99829.25;5091953;28;19931;-62
2021/12/05 07:45:20;;;;;;;;;;;;;;;17.99;50.61;99828.25;5093371;28;19942;-62
2021/12/05 07:47:49;;;;;;;;;;;;;;;17.99;49.66;99839.66;5091938;28;19935;-62
2021/12/05 07:50:15;;;;;;;;;;;;;;;18.02;49.91;99846.41;5093179;28;20013;-63
2021/12/05 07:52:43;;;;;;;;;;;;;;;18.03;50.02;99846.25;5092842;28;19912;-63
2021/12/05 07:58:10;;;;;;;;;;;;;;;18.07;49.85;99844.16;5092898;28;19963;-62
2021/12/05 08:16:35;;;;;;;;;;;;;;;18.23;50.27;99870.72;5099748;28;20365;-66
2021/12/05 08:19:00;;;;;;;;;;;;;;;18.38;51.34;99870.19;5093061;28;20010;-62
2021/12/05 08:21:26;;;;;;;;;;;;;;;18.52;51.27;99866.19;5095658;28;20036;-62
2021/12/05 08:23:51;;;;;;;;;;;;;;;18.65;50.89;99867.47;5092335;28;19920;-60
2021/12/05 08:26:21;;;;;;;;;;;;;;;18.77;50.97;99862.81;5093146;28;19916;-60
2021/12/05 08:29:03;;;;;;;;;;;;;;;18.86;51.00;99869.00;5092522;28;19931;-62
2021/12/05 08:34:46;;;;;;;;;;;;;;;19.02;50.95;99876.22;5077127;28;19915;-63
2021/12/05 08:42:38;;;;;;;;;;;;;;;19.12;50.30;99878.75;5092834;28;19922;-63
2021/12/05 08:45:45;;;;;;;;;;;;;;;19.12;49.70;99889.31;5091560;28;20390;-65
2021/12/05 09:24:43;;;;;;;;;;;;;;;18.97;49.60;99936.59;5100658;28;20251;-62
2021/12/05 09:26:49;;;;;;;;;;;;;;;18.90;49.74;99938.16;5087358;28;20401;-61
2021/12/05 09:51:35;;;;;;;;;;;;;;;18.56;50.25;99979.19;5095770;28;19923;-61
2021/12/05 10:08:10;;;;;;;;;;;;;;;18.49;50.81;99994.81;5072097;28;20349;-61
2021/12/05 10:10:41;;;;;;;;;;;;;;;18.47;50.73;100007.31;5093992;28;20378;-61
2021/12/05 10:13:27;;;;;;;;;;;;;;;18.46;50.45;100000.38;5094891;28;19911;-61
2021/12/05 10:37:12;;;;;;;;;;;;;;;18.41;50.95;100036.94;5094013;28;20442;-60
2021/12/05 10:39:38;;;;;;;;;;;;;;;18.40;50.93;100031.78;5094378;28;19912;-60
2021/12/05 10:42:38;;;;;;;;;;;;;;;18.40;50.88;100037.06;5093924;28;20351;-62
2021/12/05 10:45:05;;;;;;;;;;;;;;;18.39;51.32;100036.25;5093295;28;20030;-61
2021/12/05 10:47:38;;;;;;;;;;;;;;;18.39;50.99;100033.59;5094181;28;19912;-61
2021/12/05 10:50:22;;;;;;;;;;;;;;;18.39;51.08;100040.66;5093952;28;20414;-62
2021/12/05 10:52:47;;;;;;;;;;;;;;;18.37;50.92;100032.91;5093184;28;19912;-61
2021/12/05 10:55:12;;;;;;;;;;;;;;;18.38;51.31;100039.03;5094059;28;20263;-61
2021/12/05 10:57:42;;;;;;;;;;;;;;;18.38;51.02;100041.66;5093330;28;19915;-62
2021/12/05 11:00:13;;;;;;;;;;;;;;;18.37;51.31;100045.28;5093959;28;19969;-61
2021/12/05 11:02:42;;;;;;;;;;;;;;;18.37;51.20;100045.28;5093727;28;19995;-61
2021/12/05 11:05:07;;;;;;;;;;;;;;;18.36;51.14;100051.50;5093137;28;19919;-61
2021/12/05 11:07:35;;;;;;;;;;;;;;;18.36;50.98;100055.00;5093998;28;20006;-62
2021/12/05 11:10:02;;;;;;;;;;;;;;;18.36;50.95;100043.59;5093384;28;20412;-61
2021/12/05 11:12:31;;;;;;;;;;;;;;;18.35;51.41;100055.16;5092842;28;19921;-61
2021/12/05 11:15:00;;;;;;;;;;;;;;;18.34;51.24;100051.69;5093495;28;19916;-61
2021/12/05 11:17:30;;;;;;;;;;;;;;;18.34;51.19;100046.41;5092875;28;19916;-61
2021/12/05 11:20:00;;;;;;;;;;;;;;;18.35;51.30;100047.22;5092530;28;19916;-62
2021/12/05 11:22:26;;;;;;;;;;;;;;;18.34;51.09;100049.06;5093623;28;19916;-62
2021/12/05 11:24:52;;;;;;;;;;;;;;;18.34;51.00;100051.69;5093530;28;19912;-60
2021/12/05 11:27:19;;;;;;;;;;;;;;;18.34;51.18;100054.31;5093444;28;19911;-61
2021/12/05 11:30:04;;;;;;;;;;;;;;;18.34;51.34;100051.69;5093712;28;20279;-62
2021/12/05 11:32:35;;;;;;;;;;;;;;;18.34;50.97;100059.59;5093565;28;19923;-61
2021/12/05 11:35:16;;;;;;;;;;;;;;;18.33;51.01;100062.38;5092794;28;19922;-61
2021/12/05 11:37:56;;;;;;;;;;;;;;;18.34;51.10;100064.88;5093567;28;19923;-62
2021/12/05 11:40:23;;;;;;;;;;;;;;;18.34;51.41;100066.66;5093078;28;19919;-61
2021/12/05 11:42:54;;;;;;;;;;;;;;;18.33;51.45;100076.41;5093986;28;20352;-63
2021/12/05 11:45:19;;;;;;;;;;;;;;;18.34;51.13;100082.50;5094149;28;19948;-61
2021/12/05 11:47:44;;;;;;;;;;;;;;;18.33;51.15;100089.59;5093231;28;20429;-62
2021/12/05 11:50:10;;;;;;;;;;;;;;;18.33;51.02;100091.41;5094582;28;19932;-62
2021/12/05 11:52:39;;;;;;;;;;;;;;;18.33;51.07;100094.03;5094526;28;19912;-61
2021/12/05 11:55:05;;;;;;;;;;;;;;;18.33;51.38;100094.84;5093528;28;19908;-62
2021/12/05 11:57:30;;;;;;;;;;;;;;;18.32;51.11;100103.72;5094678;28;19919;-61
2021/12/05 12:00:08;;;;;;;;;;;;;;;18.33;51.27;100104.59;5092951;28;20302;-61
2021/12/05 12:02:37;;;;;;;;;;;;;;;18.33;51.62;100104.59;5092381;28;19946;-61
2021/12/05 12:05:08;;;;;;;;;;;;;;;18.32;51.40;100106.38;5092768;28;19916;-61
2021/12/05 12:07:34;;;;;;;;;;;;;;;18.32;51.15;100106.38;5093010;28;20434;-62
2021/12/05 12:10:15;;;;;;;;;;;;;;;18.31;50.98;100110.81;5092202;28;20052;-61
2021/12/05 12:12:51;;;;;;;;;;;;;;;18.31;51.02;100110.81;5092623;28;19912;-62
2021/12/05 12:15:17;;;;;;;;;;;;;;;18.33;51.32;100115.97;5092150;28;20365;-61
2021/12/05 12:17:43;;;;;;;;;;;;;;;18.32;51.39;100116.91;5092056;28;19967;-61
2021/12/05 12:20:11;;;;;;;;;;;;;;;18.31;51.26;100110.81;5093247;28;19985;-60
2021/12/05 12:22:37;;;;;;;;;;;;;;;18.33;51.46;100112.50;5092657;28;19994;-61
2021/12/05 12:25:08;;;;;;;;;;;;;;;18.32;51.61;100103.72;5092598;28;20041;-62
2021/12/05 12:27:33;;;;;;;;;;;;;;;18.31;51.36;100110.81;5093031;28;19999;-62
2021/12/05 12:29:59;;;;;;;;;;;;;;;18.30;51.24;100109.16;5094530;28;20322;-62
2021/12/05 12:32:27;;;;;;;;;;;;;;;18.31;51.27;100117.91;5096537;28;19916;-62
2021/12/05 12:35:04;;;;;;;;;;;;;;;18.32;51.29;100116.91;5096452;28;19908;-62
2021/12/05 12:37:29;;;;;;;;;;;;;;;18.31;51.48;100124.03;5096521;28;20036;-61
2021/12/05 12:39:54;;;;;;;;;;;;;;;18.31;51.32;100129.28;5096791;28;19974;-61
2021/12/05 12:42:25;;;;;;;;;;;;;;;18.31;51.54;100131.09;5096669;28;20395;-62
2021/12/05 12:44:56;;;;;;;;;;;;;;;18.31;51.11;100134.56;5095997;28;19939;-61
2021/12/05 12:47:29;;;;;;;;;;;;;;;18.31;51.15;100137.22;5096804;28;20409;-61
2021/12/05 12:49:54;;;;;;;;;;;;;;;18.31;51.46;100136.38;5096975;28;19962;-61
2021/12/05 12:52:20;;;;;;;;;;;;;;;18.31;51.56;100142.47;5096449;28;19924;-62
2021/12/05 12:54:55;;;;;;;;;;;;;;;18.30;51.57;100139.97;5096447;28;20377;-62
2021/12/05 12:57:26;;;;;;;;;;;;;;;18.29;51.42;100139.16;5095617;28;19946;-62
2021/12/05 12:59:56;;;;;;;;;;;;;;;18.30;51.39;100145.25;5096200;28;20383;-61
2021/12/05 13:02:32;;;;;;;;;;;;;;;18.30;51.09;100151.34;5096516;28;19991;-62
2021/12/05 13:05:16;;;;;;;;;;;;;;;18.31;51.31;100152.22;5095532;28;19912;-63
2021/12/05 13:10:29;;;;;;;;;;;;;;;18.29;49.97;100160.25;5101701;28;19974;-61
2021/12/05 13:13:02;;;;;;;;;;;;;;;18.30;50.66;100161.09;5095353;28;20008;-65
2021/12/05 13:15:31;;;;;;;;;;;;;;;18.31;51.01;100162.75;5096552;28;19961;-62
2021/12/05 13:17:58;;;;;;;;;;;;;;;18.33;50.71;100170.53;5095632;28;19998;-60
2021/12/05 13:20:53;;;;;;;;;;;;;;;18.34;50.70;100167.75;5095311;28;19931;-61
2021/12/05 13:23:30;;;;;;;;;;;;;;;18.36;50.52;100168.44;5096057;28;19957;-61
2021/12/05 13:26:14;;;;;;;;;;;;;;;18.35;50.30;100168.56;5094933;28;19969;-60
2021/12/05 13:28:39;;;;;;;;;;;;;;;18.36;50.35;100173.72;5095565;28;19919;-62
2021/12/05 13:31:23;;;;;;;;;;;;;;;18.36;50.39;100183.41;5095780;28;19912;-62
2021/12/05 13:33:48;;;;;;;;;;;;;;;18.37;50.47;100187.72;5094735;28;19919;-62
2021/12/05 13:36:30;;;;;;;;;;;;;;;18.37;50.67;100183.28;5094461;28;19920;-62
2021/12/05 13:38:55;;;;;;;;;;;;;;;18.38;50.44;100192.84;5095073;28;19916;-61
2021/12/05 13:41:20;;;;;;;;;;;;;;;18.38;50.87;100197.31;5093946;28;19919;-61
2021/12/05 13:43:56;;;;;;;;;;;;;;;18.38;50.91;100202.59;5094895;28;19995;-61
2021/12/05 13:46:32;;;;;;;;;;;;;;;18.35;50.93;100208.97;5094946;28;19916;-60
2021/12/05 13:48:59;;;;;;;;;;;;;;;18.36;50.89;100208.00;5094911;28;19935;-61
2021/12/05 13:51:26;;;;;;;;;;;;;;;18.35;50.78;100211.59;5095139;28;19912;-61
2021/12/05 13:53:55;;;;;;;;;;;;;;;18.36;51.25;100207.16;5093950;28;19916;-61
2021/12/05 13:56:24;;;;;;;;;;;;;;;18.36;50.81;100208.00;5094777;28;19916;-60
2021/12/05 13:58:53;;;;;;;;;;;;;;;18.36;50.98;100208.00;5094363;28;19912;-60
2021/12/05 14:01:20;;;;;;;;;;;;;;;18.37;51.01;100209.66;5094018;28;19912;-60
2021/12/05 14:03:49;;;;;;;;;;;;;;;18.37;50.79;100212.28;5094432;28;19915;-60
2021/12/05 14:06:22;;;;;;;;;;;;;;;18.37;50.81;100214.09;5094809;28;20366;-60
2021/12/05 14:08:48;;;;;;;;;;;;;;;18.37;51.18;100222.00;5093807;28;19907;-61
2021/12/05 14:11:13;;;;;;;;;;;;;;;18.36;51.38;100225.63;5094632;28;19932;-62
2021/12/05 14:13:38;;;;;;;;;;;;;;;18.36;51.18;100229.09;5094911;28;19912;-66
2021/12/05 14:16:04;;;;;;;;;;;;;;;18.43;51.69;100238.09;5096008;28;19947;-64
2021/12/05 14:18:29;;;;;;;;;;;;;;;18.54;51.63;100231.03;5097673;28;20030;-64
2021/12/05 14:20:54;;;;;;;;;;;;;;;18.65;51.74;100238.78;5097280;28;19938;-64
2021/12/05 14:23:20;;;;;;;;;;;;;;;18.75;51.74;100242.22;5093075;28;19912;-64
2021/12/05 14:25:51;;;;;;;;;;;;;;;18.84;51.29;100245.84;5098563;28;19979;-65
2021/12/05 14:28:16;;;;;;;;;;;;;;;18.92;51.09;100251.22;5098119;28;19949;-64
2021/12/05 14:30:45;;;;;;;;;;;;;;;18.98;50.62;100263.03;5095484;28;19915;-63
2021/12/05 14:33:11;;;;;;;;;;;;;;;19.03;50.41;100269.53;5097457;28;19962;-65
2021/12/05 14:35:38;;;;;;;;;;;;;;;19.07;50.43;100270.06;5098111;28;19912;-67
2021/12/05 14:38:07;;;;;;;;;;;;;;;19.08;50.40;100277.03;5098514;28;19912;-66
2021/12/05 14:40:34;;;;;;;;;;;;;;;19.09;50.32;100289.25;5097462;28;20367;-67
2021/12/05 14:43:03;;;;;;;;;;;;;;;19.08;50.62;100287.59;5093733;28;19919;-66
2021/12/05 14:45:36;;;;;;;;;;;;;;;19.11;50.41;100295.22;5095345;28;20002;-63
2021/12/05 14:48:02;;;;;;;;;;;;;;;19.13;50.47;100293.25;5096141;28;20011;-67
2021/12/05 14:50:30;;;;;;;;;;;;;;;19.16;50.52;100292.16;5095484;28;19965;-67
2021/12/05 14:52:57;;;;;;;;;;;;;;;19.18;49.83;100301.63;5095077;28;19916;-68
2021/12/05 14:55:25;;;;;;;;;;;;;;;19.19;49.71;100302.44;5096774;28;20002;-68
2021/12/05 14:58:14;;;;;;;;;;;;;;;19.19;49.39;100303.25;5093338;28;19916;-64
2021/12/05 15:00:41;;;;;;;;;;;;;;;19.11;49.38;100318.19;5085567;28;20011;-64
2021/12/05 15:03:06;;;;;;;;;;;;;;;19.03;49.42;100321.53;5094095;28;19912;-65
2021/12/05 15:05:33;;;;;;;;;;;;;;;18.94;49.54;100323.19;5093329;28;19919;-66
2021/12/05 15:08:00;;;;;;;;;;;;;;;18.89;49.56;100327.25;5093619;28;19950;-65
2021/12/05 15:10:25;;;;;;;;;;;;;;;18.83;49.61;100333.91;5093679;28;19922;-65
2021/12/05 15:12:52;;;;;;;;;;;;;;;18.78;49.66;100338.78;5092471;28;19999;-65
2021/12/05 15:15:28;;;;;;;;;;;;;;;18.74;50.01;100348.78;5090354;27;19995;-64
2021/12/05 15:17:55;;;;;;;;;;;;;;;18.70;50.65;100355.31;5089270;28;19968;-64
2021/12/05 15:20:23;;;;;;;;;;;;;;;18.66;50.92;100351.31;5090208;28;19966;-65
2021/12/05 15:22:52;;;;;;;;;;;;;;;18.65;51.81;100360.19;5090097;28;19942;-66
2021/12/05 15:25:19;;;;;;;;;;;;;;;18.63;51.12;100362.97;5089378;28;19926;-65
2021/12/05 15:27:45;;;;;;;;;;;;;;;18.60;50.99;100365.88;5089811;28;20356;-66
2021/12/05 15:30:21;;;;;;;;;;;;;;;18.58;50.90;100378.38;5090367;28;20299;-67
2021/12/05 15:32:50;;;;;;;;;;;;;;;18.57;50.96;100375.88;5089328;28;19962;-66
2021/12/05 15:35:16;;;;;;;;;;;;;;;18.56;50.95;100393.50;5089876;28;20362;-66
2021/12/05 15:38:05;;;;;;;;;;;;;;;18.54;51.25;100389.34;5089769;28;19916;-66
2021/12/05 15:40:32;;;;;;;;;;;;;;;18.52;51.27;100394.78;5091592;28;20020;-66
2021/12/05 15:43:17;;;;;;;;;;;;;;;18.50;51.15;100399.34;5089405;28;19920;-67
2021/12/05 15:45:44;;;;;;;;;;;;;;;18.49;51.23;100406.41;5089958;28;20436;-68
2021/12/05 15:48:20;;;;;;;;;;;;;;;18.48;51.09;100403.91;5089782;28;19917;-66
2021/12/05 15:50:51;;;;;;;;;;;;;;;18.48;51.04;100417.97;5090391;28;19917;-66
2021/12/05 15:53:17;;;;;;;;;;;;;;;18.47;51.15;100415.47;5088940;28;20238;-65
2021/12/05 15:55:47;;;;;;;;;;;;;;;18.47;51.43;100420.75;5089494;28;20364;-65
2021/12/05 15:58:13;;;;;;;;;;;;;;;18.46;51.06;100426.97;5089669;28;19916;-65
2021/12/05 16:00:40;;;;;;;;;;;;;;;18.45;51.16;100425.31;5088724;28;19923;-68
2021/12/05 16:03:10;;;;;;;;;;;;;;;18.45;51.37;100430.56;5089748;28;19940;-67
2021/12/05 16:05:37;;;;;;;;;;;;;;;18.43;51.53;100433.34;5089684;28;20371;-67
2021/12/05 16:08:04;;;;;;;;;;;;;;;18.43;51.29;100437.81;5088541;28;19924;-66
2021/12/05 16:10:31;;;;;;;;;;;;;;;18.42;51.36;100442.25;5089978;28;19916;-67
2021/12/05 16:12:56;;;;;;;;;;;;;;;18.42;51.67;100441.41;5089163;28;19977;-66
2021/12/05 16:15:26;;;;;;;;;;;;;;;18.41;51.43;100450.31;5107907;28;20316;-67
2021/12/05 16:17:59;;;;;;;;;;;;;;;18.41;51.54;100452.94;5109909;28;19920;-67
2021/12/05 16:20:26;;;;;;;;;;;;;;;18.41;51.41;100459.03;5109899;28;19916;-71
2021/12/05 16:22:57;;;;;;;;;;;;;;;18.40;50.97;100467.09;5107963;28;19951;-69
2021/12/05 16:25:23;;;;;;;;;;;;;;;18.39;51.18;100476.81;5103758;28;19916;-65
2021/12/05 16:27:52;;;;;;;;;;;;;;;18.38;51.21;100475.16;5095591;28;20318;-64
2021/12/05 16:30:25;;;;;;;;;;;;;;;18.38;51.15;100476.97;5095336;28;19920;-64
2021/12/05 16:32:51;;;;;;;;;;;;;;;18.37;51.26;100484.03;5095695;28;19951;-64
2021/12/05 16:35:24;;;;;;;;;;;;;;;18.38;51.17;100485.69;5095181;28;19916;-64
2021/12/05 16:37:49;;;;;;;;;;;;;;;18.38;51.74;100490.16;5095317;28;20414;-64
2021/12/05 16:40:15;;;;;;;;;;;;;;;18.38;51.57;100490.16;5095571;28;19916;-63
2021/12/05 16:42:40;;;;;;;;;;;;;;;18.38;51.64;100493.63;5094475;28;19927;-69
2021/12/05 16:45:06;;;;;;;;;;;;;;;18.39;51.70;100494.44;5095431;28;20375;-68
2021/12/05 16:47:32;;;;;;;;;;;;;;;18.40;52.05;100498.75;5095622;28;19916;-64
2021/12/05 16:50:03;;;;;;;;;;;;;;;18.43;51.78;100495.84;5094373;28;19923;-63
2021/12/05 16:52:31;;;;;;;;;;;;;;;18.43;52.24;100498.50;5095494;28;19923;-64
2021/12/05 16:55:01;;;;;;;;;;;;;;;18.43;51.97;100499.31;5095020;28;20364;-63
2021/12/05 16:57:31;;;;;;;;;;;;;;;18.42;52.25;100502.94;5094545;28;19920;-62
2021/12/05 16:59:58;;;;;;;;;;;;;;;18.42;52.27;100505.59;5095216;28;19949;-65
2021/12/05 17:02:24;;;;;;;;;;;;;;;18.43;52.33;100507.22;5095226;28;19951;-62
2021/12/05 17:04:57;;;;;;;;;;;;;;;18.43;52.12;100509.03;5093989;28;20406;-65
2021/12/05 17:07:38;;;;;;;;;;;;;;;18.44;51.61;100510.72;5095183;28;20285;-65
2021/12/05 17:10:04;;;;;;;;;;;;;;;18.46;51.55;100519.34;5094791;28;20308;-65
2021/12/05 17:12:32;;;;;;;;;;;;;;;18.49;51.49;100516.44;5094261;28;19924;-64
2021/12/05 17:15:09;;;;;;;;;;;;;;;18.52;51.33;100529.34;5094614;28;19989;-64
2021/12/05 17:17:35;;;;;;;;;;;;;;;18.55;51.39;100536.16;5094192;28;20370;-64
2021/12/05 17:20:35;;;;;;;;;;;;;;;18.56;51.47;100543.09;5094473;28;19963;-64
2021/12/05 17:23:05;;;;;;;;;;;;;;;18.56;51.54;100546.56;5032085;28;19918;-66
2021/12/05 17:25:33;;;;;;;;;;;;;;;18.57;51.73;100548.25;5082554;28;20401;-65
2021/12/05 17:27:59;;;;;;;;;;;;;;;18.58;51.66;100551.72;5094469;28;19989;-64
2021/12/05 17:30:25;;;;;;;;;;;;;;;18.59;51.81;100551.56;5094534;28;20372;-64
2021/12/05 17:32:50;;;;;;;;;;;;;;;18.59;51.93;100556.03;5093585;28;19974;-64
2021/12/05 17:35:15;;;;;;;;;;;;;;;18.59;51.72;100564.78;5094246;28;19917;-65
2021/12/05 17:37:44;;;;;;;;;;;;;;;18.59;51.87;100570.06;5093072;28;19923;-61
2021/12/05 17:40:09;;;;;;;;;;;;;;;18.60;51.93;100582.28;5093805;28;20003;-65
2021/12/05 17:42:34;;;;;;;;;;;;;;;18.60;51.86;100584.94;5094460;28;20013;-63
2021/12/05 17:45:01;;;;;;;;;;;;;;;18.60;51.67;100577.00;5093882;28;20336;-65
2021/12/05 17:47:27;;;;;;;;;;;;;;;18.62;51.54;100584.81;5093575;28;20385;-63
2021/12/05 17:49:55;;;;;;;;;;;;;;;18.64;51.81;100598.69;5094291;28;20011;-63